Flintstone, Maryland
Current Conditions -  °F | °C
As of 9:14 PM on Friday 19 Dec 2014 (Local Time) from KCBE Reporting Station
Overcast Overcast  
Wind Chill: 27°   Ceiling: 3200
Heat Index: 34°   Visibility: 10mi
Dew Point: 21°   Wind: 8mph
Humidity: 60%   Direction: 290°WNW
Pressure: 30.3"   Gusts: NA
Location:  39.7°N, 78.57°W
Report Text: KCBE 200214Z AUTO 29007KT 10SM OVC032 01/M06 A3030 RMK AO1
Loading
Personal Weather Stations






























Interactive Weather Map New forecast layout! Learn more

10-Day Weather Forecast

Advertisements
Track Severe Weather on mobile